createdAt,value
2022-10-10T00:04:59.113Z,4.60
2022-10-10T00:10:04.058Z,4.40
2022-10-10T00:15:08.507Z,4.47
2022-10-10T00:20:13.235Z,4.50
2022-10-10T00:25:18.145Z,3.50
2022-10-10T00:30:21.610Z,4.03
2022-10-10T00:35:25.009Z,4.40
2022-10-10T00:40:30.415Z,3.90
2022-10-10T00:45:39.789Z,3.97
2022-10-10T00:50:47.815Z,3.97
2022-10-10T00:55:54.088Z,3.83
2022-10-10T01:00:58.195Z,3.30
2022-10-10T01:06:02.021Z,3.53
2022-10-10T01:11:25.349Z,3.80
2022-10-10T01:16:35.927Z,3.53
2022-10-10T01:21:47.349Z,3.70
2022-10-10T01:27:14.587Z,3.50
2022-10-10T01:32:24.998Z,3.73
2022-10-10T01:37:38.681Z,4.43
2022-10-10T01:42:49.445Z,3.90
2022-10-10T01:47:56.738Z,4.10
2022-10-10T01:53:10.754Z,4.03
2022-10-10T01:58:25.236Z,3.90
2022-10-10T02:03:32.974Z,3.93
2022-10-10T02:08:38.933Z,4.20
2022-10-10T02:13:47.037Z,3.80
2022-10-10T02:18:52.915Z,4.10
2022-10-10T02:24:01.146Z,4.20
2022-10-10T02:29:10.806Z,4.13
2022-10-10T02:34:18.549Z,4.13
2022-10-10T02:39:25.959Z,3.80
2022-10-10T02:44:29.769Z,3.67
2022-10-10T02:49:36.282Z,4.17
2022-10-10T02:54:39.745Z,3.90
2022-10-10T02:59:43.785Z,3.97
2022-10-10T03:04:48.763Z,3.80
2022-10-10T03:09:52.263Z,3.97
2022-10-10T03:14:55.746Z,4.10
2022-10-10T03:20:00.713Z,3.67
2022-10-10T03:25:04.326Z,3.90
2022-10-10T03:30:08.879Z,4.00
2022-10-10T03:35:13.747Z,4.00
2022-10-10T03:40:17.257Z,3.70
2022-10-10T03:45:20.956Z,3.37
2022-10-10T03:50:25.845Z,4.07
2022-10-10T03:55:29.286Z,3.83
2022-10-10T04:00:32.651Z,3.80
2022-10-10T04:05:39.253Z,3.40
2022-10-10T04:10:42.660Z,3.50
2022-10-10T04:15:46.228Z,4.10
2022-10-10T04:20:51.125Z,3.53
2022-10-10T04:25:54.735Z,3.90
2022-10-10T04:30:58.198Z,3.17
2022-10-10T04:36:03.105Z,3.77
2022-10-10T04:41:06.814Z,4.07
2022-10-10T04:46:10.345Z,4.20
2022-10-10T04:51:15.534Z,4.20
2022-10-10T04:56:19.129Z,3.90
2022-10-10T05:01:22.611Z,3.93
2022-10-10T05:06:27.561Z,3.70
2022-10-10T05:11:31.046Z,3.77
2022-10-10T05:16:34.420Z,3.67
2022-10-10T05:21:39.248Z,4.17
2022-10-10T05:26:43.432Z,4.27
2022-10-10T05:31:46.892Z,4.17
2022-10-10T05:36:51.748Z,4.03
2022-10-10T05:41:55.075Z,3.90
2022-10-10T05:46:58.617Z,3.90
2022-10-10T05:52:03.642Z,3.37
2022-10-10T05:57:07.095Z,3.90
2022-10-10T06:02:10.558Z,3.77
2022-10-10T06:07:15.443Z,3.70
2022-10-10T06:12:18.831Z,3.57
2022-10-10T06:17:22.222Z,3.40
2022-10-10T06:22:27.695Z,3.50
2022-10-10T06:27:31.129Z,3.50
2022-10-10T06:32:34.631Z,3.37
2022-10-10T06:37:39.704Z,4.60
2022-10-10T06:42:43.162Z,4.40
2022-10-10T06:47:46.571Z,4.10
2022-10-10T06:52:51.908Z,4.50
2022-10-10T06:57:55.768Z,4.50
2022-10-10T07:02:59.293Z,4.20
2022-10-10T07:08:04.151Z,4.37
2022-10-10T07:13:07.607Z,4.63
2022-10-10T07:18:11.352Z,4.37
2022-10-10T07:23:16.318Z,6.50
2022-10-10T07:28:20.108Z,5.77
2022-10-10T07:33:23.531Z,5.53
2022-10-10T07:38:28.535Z,5.17
2022-10-10T07:43:31.958Z,4.57
2022-10-10T07:48:35.410Z,3.27
2022-10-10T07:53:41.044Z,3.43
2022-10-10T07:58:44.461Z,3.70
2022-10-10T08:03:48.798Z,3.30
2022-10-10T08:08:53.666Z,3.60
2022-10-10T08:13:57.218Z,2.90
2022-10-10T08:19:00.709Z,3.37
2022-10-10T08:24:06.169Z,3.03
2022-10-10T08:29:09.612Z,3.20
2022-10-10T08:34:13.037Z,3.57
2022-10-10T08:39:18.210Z,3.43
2022-10-10T08:44:26.742Z,3.10
2022-10-10T08:49:34.809Z,3.40
2022-10-10T08:54:42.558Z,4.13
2022-10-10T08:59:46.524Z,4.13
2022-10-10T09:04:50.048Z,3.40
2022-10-10T09:10:04.479Z,3.57
2022-10-10T09:15:16.324Z,3.50
2022-10-10T09:20:34.759Z,3.40
2022-10-10T09:25:45.545Z,3.37
2022-10-10T09:30:52.433Z,3.57
2022-10-10T09:35:58.059Z,3.37
2022-10-10T09:41:07.339Z,3.70
2022-10-10T09:46:11.017Z,3.73
2022-10-10T09:51:16.286Z,3.43
2022-10-10T09:56:24.257Z,2.73
2022-10-10T10:01:31.258Z,3.23
2022-10-10T10:06:35.022Z,2.93
2022-10-10T10:11:40.730Z,2.40
2022-10-10T10:16:44.347Z,2.83
2022-10-10T10:21:52.840Z,2.50
2022-10-10T10:26:58.775Z,2.40
2022-10-10T10:32:08.443Z,2.70
2022-10-10T10:37:20.333Z,3.00
2022-10-10T10:42:41.279Z,2.20
2022-10-10T10:47:54.054Z,2.93
2022-10-10T10:53:01.382Z,2.30
2022-10-10T11:05:16.047Z,2.70
2022-10-10T11:09:50.452Z,2.23
2022-10-10T11:15:02.662Z,2.50
2022-10-10T11:20:18.032Z,2.43
2022-10-10T11:25:26.724Z,2.50
2022-10-10T11:30:37.506Z,2.93
2022-10-10T11:35:46.566Z,2.70
2022-10-10T11:40:55.325Z,2.20
2022-10-10T11:46:06.862Z,2.70
2022-10-10T11:51:24.372Z,2.13
2022-10-10T11:56:32.281Z,2.57
2022-10-10T12:01:42.289Z,2.20
2022-10-10T12:06:51.674Z,2.33
2022-10-10T12:12:01.020Z,2.30
2022-10-10T12:17:07.144Z,2.37
2022-10-10T12:22:25.500Z,2.50
2022-10-10T12:27:44.133Z,2.40
2022-10-10T12:32:54.581Z,2.53
2022-10-10T12:38:25.497Z,2.43
2022-10-10T12:43:44.058Z,2.33
2022-10-10T12:49:04.057Z,3.07
2022-10-10T12:54:09.804Z,2.67
2022-10-10T12:59:28.505Z,3.63
2022-10-10T13:04:36.932Z,3.00
2022-10-10T13:09:43.820Z,2.20
2022-10-10T13:15:11.808Z,4.30
2022-10-10T13:20:33.339Z,2.70
2022-10-10T13:25:52.122Z,2.80
2022-10-10T13:30:56.323Z,2.53
2022-10-10T13:36:08.687Z,2.43
2022-10-10T13:41:12.469Z,3.07
2022-10-10T13:46:25.040Z,3.33
2022-10-10T13:51:46.665Z,2.87
2022-10-10T13:56:50.297Z,4.57
2022-10-10T14:02:25.394Z,2.90
2022-10-10T14:07:35.293Z,2.53
2022-10-10T14:12:46.655Z,2.43
2022-10-10T14:17:50.406Z,2.37
2022-10-10T14:22:55.475Z,3.00
2022-10-10T14:28:03.396Z,3.10
2022-10-10T14:33:14.479Z,8.53
2022-10-10T14:38:38.514Z,3.40
2022-10-10T14:43:46.149Z,2.30
2022-10-10T14:54:27.950Z,3.67
2022-10-10T14:59:47.865Z,2.83
2022-10-10T15:05:01.382Z,5.30
2022-10-10T15:15:30.707Z,2.57
2022-10-10T15:20:34.235Z,2.27
2022-10-10T15:25:43.822Z,2.40
2022-10-10T15:30:47.807Z,2.80
2022-10-10T15:36:09.079Z,2.07
2022-10-10T15:41:15.474Z,2.20
2022-10-10T15:46:19.272Z,2.20
2022-10-10T15:51:22.899Z,2.47
2022-10-10T15:56:27.920Z,2.73
2022-10-10T16:01:32.483Z,2.80
2022-10-10T16:06:35.951Z,2.23
2022-10-10T16:11:40.952Z,2.40
2022-10-10T16:16:44.452Z,2.47
2022-10-10T16:21:47.960Z,2.60
2022-10-10T16:26:52.822Z,2.67
2022-10-10T16:31:56.277Z,2.50
2022-10-10T16:36:59.683Z,2.70
2022-10-10T16:42:04.535Z,3.43
2022-10-10T16:47:07.971Z,2.33
2022-10-10T16:52:12.944Z,2.10
2022-10-10T16:57:18.392Z,2.37
2022-10-10T17:02:24.598Z,2.80
2022-10-10T17:07:28.488Z,2.33
2022-10-10T17:12:33.354Z,2.00
2022-10-10T17:17:37.951Z,1.87
2022-10-10T17:22:49.941Z,1.87
2022-10-10T17:27:54.926Z,1.50
2022-10-10T17:32:58.741Z,1.57
2022-10-10T17:38:15.891Z,1.60
2022-10-10T17:43:27.796Z,1.80
2022-10-10T17:48:31.818Z,2.00
2022-10-10T17:53:35.696Z,2.37
2022-10-10T17:58:41.164Z,2.20
2022-10-10T18:03:45.031Z,2.20
2022-10-10T18:08:49.438Z,2.77
2022-10-10T18:14:00.572Z,2.90
2022-10-10T18:19:05.800Z,2.70
2022-10-10T18:24:41.481Z,2.50
2022-10-10T18:29:50.106Z,2.40
2022-10-10T18:34:53.911Z,2.60
2022-10-10T18:39:58.008Z,2.80
2022-10-10T18:45:03.663Z,2.50
2022-10-10T18:50:08.939Z,1.80
2022-10-10T18:55:17.622Z,1.90
2022-10-10T19:00:25.294Z,1.80
2022-10-10T19:05:29.443Z,1.80
2022-10-10T19:10:33.031Z,2.20
2022-10-10T19:15:38.135Z,2.00
2022-10-10T19:20:41.949Z,1.90
2022-10-10T19:31:00.452Z,2.00
2022-10-10T19:36:07.592Z,1.87
2022-10-10T19:41:14.795Z,1.93
2022-10-10T19:46:23.008Z,2.50
2022-10-10T19:51:27.619Z,2.00
2022-10-10T19:56:31.065Z,2.40
2022-10-10T20:01:35.996Z,1.90
2022-10-10T20:06:42.309Z,1.90
2022-10-10T20:11:45.899Z,2.37
2022-10-10T20:16:50.923Z,2.10
2022-10-10T20:21:54.916Z,2.03
2022-10-10T20:26:58.727Z,2.20
2022-10-10T20:32:03.745Z,1.90
2022-10-10T20:37:07.333Z,2.30
2022-10-10T20:42:10.899Z,1.90
2022-10-10T20:47:15.823Z,2.40
2022-10-10T20:52:24.043Z,2.00
2022-10-10T20:57:27.562Z,2.27
2022-10-10T21:02:34.718Z,2.10
2022-10-10T21:07:38.128Z,2.27
2022-10-10T21:12:41.688Z,2.50
2022-10-10T21:17:49.485Z,2.33
2022-10-10T21:22:52.966Z,2.23
2022-10-10T21:27:56.344Z,2.20
2022-10-10T21:33:01.233Z,2.40
2022-10-10T21:38:04.639Z,2.10
2022-10-10T21:43:08.027Z,2.40
2022-10-10T21:48:13.884Z,2.70
2022-10-10T21:53:17.396Z,2.20
2022-10-10T21:58:20.955Z,2.30
2022-10-10T22:03:25.803Z,2.10
2022-10-10T22:08:29.235Z,2.40
2022-10-10T22:13:33.324Z,2.40
2022-10-10T22:18:40.111Z,2.40
2022-10-10T22:23:46.143Z,2.40
2022-10-10T22:28:49.678Z,2.60
2022-10-10T22:34:00.379Z,2.67
2022-10-10T22:39:04.284Z,2.50
2022-10-10T22:44:08.252Z,2.33
2022-10-10T22:49:13.430Z,2.27
2022-10-10T22:54:17.015Z,2.60
2022-10-10T22:59:20.579Z,2.50
2022-10-10T23:04:25.462Z,2.50
2022-10-10T23:09:28.956Z,2.73
2022-10-10T23:14:32.511Z,2.23
2022-10-10T23:19:37.460Z,2.60
2022-10-10T23:24:41.495Z,2.23
2022-10-10T23:29:45.849Z,2.60
2022-10-10T23:34:50.830Z,3.83
2022-10-10T23:39:54.323Z,3.53
2022-10-10T23:44:57.729Z,4.07
2022-10-10T23:50:02.970Z,4.23
2022-10-10T23:55:07.599Z,4.47
